createdAt,value
2019-04-16T00:02:52.242Z,11.47
2019-04-16T00:06:04.700Z,12.87
2019-04-16T00:09:16.040Z,13.67
2019-04-16T00:12:26.828Z,12.97
2019-04-16T00:15:32.316Z,12.30
2019-04-16T00:18:37.545Z,12.60
2019-04-16T00:21:53.260Z,12.47
2019-04-16T00:24:58.571Z,10.50
2019-04-16T00:28:03.821Z,14.10
2019-04-16T00:31:11.640Z,13.53
2019-04-16T00:34:16.894Z,13.60
2019-04-16T00:37:22.125Z,12.53
2019-04-16T00:40:27.390Z,12.43
2019-04-16T00:43:32.603Z,13.00
2019-04-16T00:46:37.885Z,16.43
2019-04-16T00:49:43.106Z,14.03
2019-04-16T00:52:48.385Z,14.70
2019-04-16T00:55:53.714Z,11.43
2019-04-16T00:58:58.996Z,12.67
2019-04-16T01:02:04.204Z,11.60
2019-04-16T01:05:09.595Z,11.33
2019-04-16T01:08:14.929Z,15.40
2019-04-16T01:11:20.164Z,13.77
2019-04-16T01:14:26.791Z,13.30
2019-04-16T01:17:33.507Z,12.00
2019-04-16T01:20:40.384Z,13.17
2019-04-16T01:23:48.798Z,15.17
2019-04-16T01:26:55.407Z,13.50
2019-04-16T01:30:04.870Z,19.03
2019-04-16T01:33:17.555Z,13.00
2019-04-16T01:36:31.423Z,13.67
2019-04-16T01:39:38.134Z,14.53
2019-04-16T01:42:44.963Z,14.07
2019-04-16T01:45:51.133Z,12.33
2019-04-16T01:48:56.427Z,11.00
2019-04-16T01:52:01.698Z,13.23
2019-04-16T01:55:07.068Z,15.67
2019-04-16T01:58:12.333Z,15.43
2019-04-16T02:01:17.579Z,12.03
2019-04-16T02:04:22.839Z,10.90
2019-04-16T02:07:28.667Z,11.80
2019-04-16T02:10:35.490Z,12.07
2019-04-16T02:13:45.820Z,10.40
2019-04-16T02:16:48.980Z,10.43
2019-04-16T02:19:54.274Z,12.23
2019-04-16T02:22:59.544Z,13.03
2019-04-16T02:26:04.778Z,10.10
2019-04-16T02:29:10.087Z,12.03
2019-04-16T02:32:15.370Z,11.67
2019-04-16T02:35:20.594Z,11.40
2019-04-16T02:38:25.855Z,14.20
2019-04-16T02:41:31.072Z,12.77
2019-04-16T02:44:36.417Z,11.17
2019-04-16T02:47:42.502Z,12.43
2019-04-16T02:50:51.440Z,12.83
2019-04-16T02:54:06.747Z,12.17
2019-04-16T02:57:40.355Z,10.17
2019-04-16T03:01:07.643Z,9.87
2019-04-16T03:04:17.644Z,11.40
2019-04-16T03:07:22.911Z,10.57
2019-04-16T03:10:28.198Z,11.00
2019-04-16T03:13:33.442Z,14.50
2019-04-16T03:16:46.469Z,10.97
2019-04-16T03:19:52.215Z,13.10
2019-04-16T03:22:57.471Z,10.63
2019-04-16T03:26:02.946Z,11.53
2019-04-16T03:29:08.348Z,11.93
2019-04-16T03:32:15.931Z,11.23
2019-04-16T03:35:25.166Z,12.63
2019-04-16T03:38:28.267Z,11.53
2019-04-16T03:41:33.529Z,12.73
2019-04-16T03:44:38.920Z,11.20
2019-04-16T03:47:44.278Z,15.97
2019-04-16T03:50:49.607Z,10.37
2019-04-16T03:53:57.380Z,12.30
2019-04-16T03:57:02.902Z,9.37
2019-04-16T04:00:12.450Z,12.43
2019-04-16T04:03:15.780Z,10.80
2019-04-16T04:06:21.142Z,11.23
2019-04-16T04:09:26.488Z,13.50
2019-04-16T04:12:33.343Z,11.30
2019-04-16T04:15:38.588Z,10.70
2019-04-16T04:18:43.954Z,9.60
2019-04-16T04:21:50.599Z,12.80
2019-04-16T04:24:56.262Z,8.97
2019-04-16T04:28:01.494Z,11.07
2019-04-16T04:31:06.880Z,8.37
2019-04-16T04:34:15.468Z,10.67
2019-04-16T04:37:19.158Z,13.13
2019-04-16T04:40:24.489Z,10.53
2019-04-16T04:43:32.026Z,11.27
2019-04-16T04:46:37.820Z,12.30
2019-04-16T04:49:44.173Z,10.57
2019-04-16T04:52:49.583Z,9.83
2019-04-16T04:55:57.150Z,11.50
2019-04-16T04:59:02.506Z,10.93
2019-04-16T05:02:10.583Z,11.10
2019-04-16T05:05:29.399Z,11.47
2019-04-16T05:08:34.704Z,11.77
2019-04-16T05:11:40.040Z,9.40
2019-04-16T05:14:57.214Z,12.37
2019-04-16T05:18:00.717Z,10.37
2019-04-16T05:21:05.878Z,10.77
2019-04-16T05:24:11.171Z,10.63
2019-04-16T05:27:19.491Z,10.20
2019-04-16T05:30:24.813Z,12.60
2019-04-16T05:33:30.027Z,10.00
2019-04-16T05:36:35.343Z,10.17
2019-04-16T05:39:40.602Z,12.70
2019-04-16T05:42:47.893Z,10.07
2019-04-16T05:45:53.292Z,12.70
2019-04-16T05:48:58.514Z,13.50
2019-04-16T05:52:04.163Z,12.83
2019-04-16T05:55:24.537Z,11.53
2019-04-16T05:58:32.082Z,14.67
2019-04-16T06:01:45.436Z,12.80
2019-04-16T06:04:55.629Z,12.70
2019-04-16T06:08:09.090Z,10.20
2019-04-16T06:11:27.622Z,12.80
2019-04-16T06:14:33.669Z,11.47
2019-04-16T06:18:10.103Z,11.90
2019-04-16T06:21:43.219Z,10.50
2019-04-16T06:25:11.157Z,15.63
2019-04-16T06:28:38.398Z,12.20
2019-04-16T06:32:08.358Z,11.83
2019-04-16T06:35:44.034Z,12.40
2019-04-16T06:38:55.030Z,11.70
2019-04-16T06:42:21.298Z,13.00
2019-04-16T06:45:36.540Z,13.57
2019-04-16T06:48:46.027Z,13.77
2019-04-16T06:52:16.643Z,12.90
2019-04-16T06:55:46.179Z,14.73
2019-04-16T06:59:10.292Z,13.73
2019-04-16T07:02:55.683Z,13.43
2019-04-16T07:06:09.772Z,11.10
2019-04-16T07:09:41.483Z,13.60
2019-04-16T07:12:40.941Z,13.23
2019-04-16T07:15:46.411Z,14.77
2019-04-16T07:18:51.723Z,13.30
2019-04-16T07:21:57.034Z,12.67
2019-04-16T07:25:04.561Z,12.30
2019-04-16T07:28:31.412Z,11.13
2019-04-16T07:31:42.578Z,14.20
2019-04-16T07:34:53.448Z,11.20
2019-04-16T07:38:11.380Z,11.80
2019-04-16T07:41:33.471Z,12.43
2019-04-16T07:44:56.737Z,10.67
2019-04-16T07:48:07.005Z,16.87
2019-04-16T07:51:30.263Z,15.77
2019-04-16T07:54:51.172Z,15.00
2019-04-16T07:57:56.555Z,13.03
2019-04-16T08:01:01.913Z,14.63
2019-04-16T08:04:07.193Z,13.47
2019-04-16T08:07:12.477Z,14.27
2019-04-16T08:10:17.883Z,15.63
2019-04-16T08:13:24.598Z,13.07
2019-04-16T08:16:29.932Z,13.60
2019-04-16T08:19:37.256Z,16.90
2019-04-16T08:22:47.287Z,12.47
2019-04-16T08:25:56.249Z,13.50
2019-04-16T08:28:56.296Z,12.67
2019-04-16T08:32:01.654Z,15.27
2019-04-16T08:35:07.256Z,17.17
2019-04-16T08:38:12.471Z,13.27
2019-04-16T08:41:21.372Z,15.17
2019-04-16T08:44:24.815Z,13.33
2019-04-16T08:47:30.125Z,17.20
2019-04-16T08:50:35.598Z,15.60
2019-04-16T08:53:43.835Z,13.67
2019-04-16T08:56:49.483Z,15.73
2019-04-16T08:59:54.718Z,13.70
2019-04-16T09:03:01.276Z,14.70
2019-04-16T09:06:07.637Z,18.93
2019-04-16T09:09:28.831Z,16.50
2019-04-16T09:12:34.139Z,14.83
2019-04-16T09:15:39.562Z,17.50
2019-04-16T09:19:12.846Z,17.30
2019-04-16T09:22:18.221Z,16.50
2019-04-16T09:25:54.758Z,13.67
2019-04-16T09:29:18.876Z,15.30
2019-04-16T09:32:42.998Z,16.60
2019-04-16T09:35:57.869Z,16.80
2019-04-16T09:39:13.161Z,16.97
2019-04-16T09:42:18.595Z,16.70
2019-04-16T09:45:25.017Z,17.07
2019-04-16T09:48:34.087Z,15.37
2019-04-16T09:51:37.601Z,19.97
2019-04-16T09:54:44.449Z,14.53
2019-04-16T09:57:49.866Z,16.60
2019-04-16T10:01:03.103Z,14.53
2019-04-16T10:04:10.132Z,15.77
2019-04-16T10:07:15.448Z,18.30
2019-04-16T10:10:20.690Z,16.07
2019-04-16T10:13:31.747Z,16.20
2019-04-16T10:16:33.001Z,17.70
2019-04-16T10:19:42.987Z,16.23
2019-04-16T10:22:45.320Z,16.70
2019-04-16T10:25:50.701Z,15.20
2019-04-16T10:28:59.438Z,14.67
2019-04-16T10:32:04.771Z,17.53
2019-04-16T10:35:10.248Z,18.50
2019-04-16T10:38:37.509Z,16.37
2019-04-16T10:42:10.855Z,16.90
2019-04-16T10:45:27.741Z,17.30
2019-04-16T10:48:52.287Z,18.07
2019-04-16T10:52:16.531Z,18.80
2019-04-16T10:55:27.971Z,18.77
2019-04-16T10:58:50.947Z,18.23
2019-04-16T11:02:17.951Z,24.97
2019-04-16T11:06:00.817Z,20.87
2019-04-16T11:09:08.344Z,22.20
2019-04-16T11:12:13.776Z,20.10
2019-04-16T11:15:22.826Z,18.73
2019-04-16T11:18:28.218Z,20.17
2019-04-16T11:21:33.535Z,21.50
2019-04-16T11:24:39.490Z,20.20
2019-04-16T11:27:44.906Z,20.53
2019-04-16T11:30:53.462Z,20.50
2019-04-16T11:34:10.428Z,18.67
2019-04-16T11:37:17.159Z,22.33
2019-04-16T11:40:22.602Z,22.10
2019-04-16T11:43:27.943Z,17.50
2019-04-16T11:46:33.389Z,23.50
2019-04-16T11:49:38.701Z,18.93
2019-04-16T11:52:43.900Z,20.00
2019-04-16T11:55:50.427Z,18.53
2019-04-16T11:58:57.409Z,21.00
2019-04-16T12:02:21.801Z,18.70
2019-04-16T12:05:35.263Z,21.97
2019-04-16T12:09:02.569Z,21.10
2019-04-16T12:12:22.944Z,21.83
2019-04-16T12:15:43.577Z,20.20
2019-04-16T12:19:06.546Z,19.53
2019-04-16T12:22:24.987Z,24.83
2019-04-16T12:25:46.011Z,22.40
2019-04-16T12:28:56.803Z,20.90
2019-04-16T12:32:21.056Z,20.97
2019-04-16T12:35:45.214Z,23.17
2019-04-16T12:39:06.234Z,19.87
2019-04-16T12:42:21.146Z,22.60
2019-04-16T12:45:53.439Z,21.00
2019-04-16T12:49:17.394Z,24.80
2019-04-16T12:52:59.959Z,22.43
2019-04-16T12:56:24.327Z,23.80
2019-04-16T12:59:48.774Z,24.50
2019-04-16T13:03:18.362Z,23.73
2019-04-16T13:06:32.036Z,20.33
2019-04-16T13:09:46.619Z,20.10
2019-04-16T13:13:01.652Z,20.53
2019-04-16T13:16:16.031Z,23.77
2019-04-16T13:19:49.561Z,21.87
2019-04-16T13:22:56.945Z,24.50
2019-04-16T13:26:22.416Z,21.93
2019-04-16T13:29:31.626Z,23.43
2019-04-16T13:32:37.047Z,22.30
2019-04-16T13:35:42.452Z,20.73
2019-04-16T13:38:58.811Z,19.37
2019-04-16T13:42:04.340Z,26.83
2019-04-16T13:45:32.815Z,27.77
2019-04-16T13:48:44.235Z,24.23
2019-04-16T13:51:49.496Z,23.70
2019-04-16T13:55:08.615Z,26.57
2019-04-16T13:58:25.111Z,29.13
2019-04-16T14:01:33.776Z,23.47
2019-04-16T14:04:39.287Z,26.10
2019-04-16T14:07:47.374Z,22.40
2019-04-16T14:10:52.680Z,24.70
2019-04-16T14:13:58.212Z,26.60
2019-04-16T14:17:09.656Z,21.47
2019-04-16T14:20:13.642Z,26.30
2019-04-16T14:23:18.884Z,24.83
2019-04-16T14:26:24.234Z,26.13
2019-04-16T14:29:29.645Z,29.20
2019-04-16T14:32:34.944Z,32.30
2019-04-16T14:35:40.801Z,25.40
2019-04-16T14:38:50.066Z,26.87
2019-04-16T14:41:56.870Z,28.87
2019-04-16T14:45:11.784Z,23.13
2019-04-16T14:48:17.072Z,27.50
2019-04-16T14:51:22.334Z,26.27
2019-04-16T14:54:52.157Z,26.33
2019-04-16T14:58:11.654Z,27.90
2019-04-16T15:01:44.006Z,29.00
2019-04-16T15:05:06.860Z,26.43
2019-04-16T15:08:43.330Z,29.63
2019-04-16T15:12:13.485Z,27.33
2019-04-16T15:15:24.082Z,25.90
2019-04-16T15:18:34.569Z,24.90
2019-04-16T15:21:58.731Z,27.10
2019-04-16T15:25:20.926Z,27.37
2019-04-16T15:28:35.054Z,28.40
2019-04-16T15:32:08.221Z,27.93
2019-04-16T15:35:17.395Z,26.53
2019-04-16T15:38:35.899Z,27.93
2019-04-16T15:41:52.056Z,26.80
2019-04-16T15:45:16.186Z,26.50
2019-04-16T15:48:40.307Z,26.00
2019-04-16T15:52:09.856Z,24.60
2019-04-16T15:55:39.744Z,25.20
2019-04-16T15:59:03.887Z,26.00
2019-04-16T16:02:27.190Z,27.03
2019-04-16T16:05:36.665Z,27.83
2019-04-16T16:09:09.314Z,28.13
2019-04-16T16:12:22.089Z,27.93
2019-04-16T16:15:26.320Z,30.30
2019-04-16T16:18:31.634Z,26.77
2019-04-16T16:21:37.085Z,25.37
2019-04-16T16:24:43.089Z,27.40
2019-04-16T16:27:50.731Z,27.40
2019-04-16T16:30:56.211Z,23.67
2019-04-16T16:34:01.568Z,27.20
2019-04-16T16:37:06.840Z,28.00
2019-04-16T16:40:15.210Z,28.97
2019-04-16T16:43:19.773Z,26.30
2019-04-16T16:46:56.023Z,28.77
2019-04-16T16:49:51.964Z,27.10
2019-04-16T16:53:12.295Z,30.03
2019-04-16T16:56:24.161Z,26.30
2019-04-16T16:59:43.673Z,28.30
2019-04-16T17:02:53.397Z,28.23
2019-04-16T17:05:59.186Z,28.77
2019-04-16T17:09:05.793Z,23.90
2019-04-16T17:12:13.849Z,31.80
2019-04-16T17:15:19.253Z,30.57
2019-04-16T17:18:24.544Z,25.50
2019-04-16T17:21:29.850Z,28.70
2019-04-16T17:24:35.130Z,27.50
2019-04-16T17:27:51.030Z,26.20
2019-04-16T17:30:47.518Z,26.50
2019-04-16T17:33:52.795Z,30.57
2019-04-16T17:36:58.120Z,30.83
2019-04-16T17:40:16.378Z,31.47
2019-04-16T17:43:30.239Z,22.77
2019-04-16T17:46:54.454Z,25.33
2019-04-16T17:50:21.829Z,24.33
2019-04-16T17:53:33.333Z,25.53
2019-04-16T17:57:04.700Z,25.23
2019-04-16T18:00:28.928Z,24.90
2019-04-16T18:03:48.244Z,27.73
2019-04-16T18:07:12.574Z,27.97
2019-04-16T18:10:39.818Z,25.40
2019-04-16T18:13:55.513Z,26.67
2019-04-16T18:17:27.629Z,31.50
2019-04-16T18:20:58.674Z,24.37
2019-04-16T18:24:18.193Z,28.30
2019-04-16T18:27:32.737Z,23.27
2019-04-16T18:30:46.098Z,24.93
2019-04-16T18:33:58.769Z,26.13
2019-04-16T18:37:26.322Z,29.07
2019-04-16T18:40:53.612Z,29.93
2019-04-16T18:44:23.863Z,24.23
2019-04-16T18:47:39.134Z,30.07
2019-04-16T18:50:44.701Z,25.20
2019-04-16T18:53:49.988Z,27.40
2019-04-16T18:56:55.304Z,27.60
2019-04-16T19:00:00.674Z,26.53
2019-04-16T19:03:06.018Z,25.77
2019-04-16T19:06:11.281Z,27.53
2019-04-16T19:09:16.678Z,26.40
2019-04-16T19:12:22.030Z,26.47
2019-04-16T19:15:27.377Z,28.23
2019-04-16T19:18:32.645Z,30.53
2019-04-16T19:21:42.068Z,27.57
2019-04-16T19:24:46.662Z,31.37
2019-04-16T19:27:52.494Z,26.73
2019-04-16T19:30:58.938Z,24.27
2019-04-16T19:34:08.527Z,28.40
2019-04-16T19:37:11.703Z,30.10
2019-04-16T19:40:18.860Z,27.30
2019-04-16T19:43:24.198Z,31.13
2019-04-16T19:46:29.721Z,25.10
2019-04-16T19:49:36.164Z,26.47
2019-04-16T19:52:45.438Z,26.03
2019-04-16T19:55:48.798Z,28.57
2019-04-16T19:58:54.345Z,25.80
2019-04-16T20:02:01.655Z,27.90
2019-04-16T20:05:07.957Z,24.90
2019-04-16T20:08:13.593Z,26.70
2019-04-16T20:11:21.348Z,28.83
2019-04-16T20:14:26.052Z,28.77
2019-04-16T20:17:31.283Z,26.47
2019-04-16T20:20:36.680Z,28.03
2019-04-16T20:23:49.335Z,25.50
2019-04-16T20:26:57.314Z,27.40
2019-04-16T20:30:02.653Z,27.33
2019-04-16T20:33:10.832Z,27.57
2019-04-16T20:36:16.172Z,30.40
2019-04-16T20:39:21.533Z,24.70
2019-04-16T20:42:26.789Z,27.87
2019-04-16T20:45:32.154Z,26.50
2019-04-16T20:48:37.433Z,26.37
2019-04-16T20:51:42.818Z,25.00
2019-04-16T20:54:53.924Z,27.90
2019-04-16T20:58:00.258Z,25.13
2019-04-16T21:01:06.159Z,21.53
2019-04-16T21:04:13.117Z,22.90
2019-04-16T21:07:21.475Z,25.20
2019-04-16T21:10:26.781Z,23.50
2019-04-16T21:13:32.128Z,25.50
2019-04-16T21:16:37.436Z,24.10
2019-04-16T21:19:47.995Z,26.87
2019-04-16T21:22:53.632Z,24.60
2019-04-16T21:25:58.923Z,25.87
2019-04-16T21:29:14.582Z,24.20
2019-04-16T21:32:42.214Z,23.33
2019-04-16T21:35:50.093Z,23.13
2019-04-16T21:39:09.896Z,24.40
2019-04-16T21:42:16.877Z,23.17
2019-04-16T21:45:22.190Z,24.23
2019-04-16T21:48:27.804Z,24.60
2019-04-16T21:51:33.438Z,25.20
2019-04-16T21:54:39.126Z,24.30
2019-04-16T21:57:46.100Z,26.93
2019-04-16T22:01:09.402Z,23.30
2019-04-16T22:04:17.441Z,22.73
2019-04-16T22:07:24.691Z,29.30
2019-04-16T22:10:30.942Z,22.20
2019-04-16T22:13:36.242Z,24.57
2019-04-16T22:16:41.578Z,22.30
2019-04-16T22:19:54.461Z,23.50
2019-04-16T22:22:54.017Z,21.63
2019-04-16T22:26:01.382Z,24.40
2019-04-16T22:29:06.386Z,21.40
2019-04-16T22:32:11.651Z,25.93
2019-04-16T22:35:16.933Z,24.23
2019-04-16T22:38:22.226Z,29.13
2019-04-16T22:41:49.366Z,22.73
2019-04-16T22:45:12.489Z,22.60
2019-04-16T22:48:17.722Z,25.37
2019-04-16T22:51:23.991Z,28.43
2019-04-16T22:54:29.208Z,23.90
2019-04-16T22:57:34.477Z,25.00
2019-04-16T23:00:44.359Z,23.67
2019-04-16T23:03:53.364Z,20.90
2019-04-16T23:06:57.368Z,25.40
2019-04-16T23:10:02.647Z,23.33
2019-04-16T23:13:08.070Z,23.50
2019-04-16T23:16:13.442Z,26.90
2019-04-16T23:19:20.318Z,22.90
2019-04-16T23:22:25.716Z,23.50
2019-04-16T23:25:30.986Z,23.00
2019-04-16T23:28:36.226Z,21.77
2019-04-16T23:31:43.776Z,27.33
2019-04-16T23:34:48.997Z,24.33
2019-04-16T23:37:58.088Z,20.10
2019-04-16T23:41:01.360Z,25.33
2019-04-16T23:44:27.747Z,24.67
2019-04-16T23:48:01.637Z,19.70
2019-04-16T23:51:20.437Z,20.10
2019-04-16T23:54:32.179Z,24.70
2019-04-16T23:57:48.789Z,25.87
